Nibley, Utah
Current Conditions -  °F | °C
As of 8:51 AM on Monday 26 Jan 2015 (Local Time) from KLGU Reporting Station
Moderate Fog Moderate Fog  
Wind Chill: 25°   Ceiling: 100
Heat Index: 25°   Visibility: 0.25mi
Dew Point: 23°   Wind: 0mph
Humidity: 92%   Direction: NA
Pressure: 30.42"   Gusts: NA
Location:  41.6898°N, 111.643°W
Report Text: KLGU 261551Z AUTO 00000KT 1/4SM FZFG VV001 M04/M05 A3042 RMK AO2 SLP323 I1000 T10391050
Loading
Personal Weather Stations






























Interactive Weather Map New forecast layout! Learn more

10-Day Weather Forecast

Advertisements
Track Severe Weather on mobile